Sierra City, California
Current Conditions -  °F | °C
As of 5:52 PM on Saturday 25 Oct 2014 (Local Time) from KBLU Reporting Station
Light Rain Light Rain  
Wind Chill: 36°   Ceiling: 400
Heat Index: 43°   Visibility: 8mi
Dew Point: 40°   Wind: 15mph
Humidity: 89%   Direction: 160°SSE
Pressure: 30.13"   Gusts: 22mph
Location:  39.57°N, 120.64°W
Report Text: KBLU 260052Z AUTO 16013G19KT 8SM -RA OVC004 06/04 A3013 RMK AO2 RAB39 SLP179 P0001 T00610044
Loading
Personal Weather Stations






























Interactive Weather Map
Tropical Storm Tracking
New forecast layout! Learn more

10-Day Weather Forecast

Advertisements
Track Severe Weather on mobile